createdAt,value
2022-11-21T00:02:10.781Z,21.10
2022-11-21T00:04:39.262Z,19.00
2022-11-21T00:07:07.563Z,22.10
2022-11-21T00:09:36.950Z,21.10
2022-11-21T00:12:05.283Z,19.90
2022-11-21T00:14:34.232Z,19.40
2022-11-21T00:17:02.340Z,19.70
2022-11-21T00:19:30.428Z,21.30
2022-11-21T00:21:58.859Z,18.30
2022-11-21T00:24:27.142Z,22.20
2022-11-21T00:26:55.535Z,20.40
2022-11-21T00:29:23.781Z,19.70
2022-11-21T00:31:52.197Z,21.20
2022-11-21T00:34:20.241Z,20.90
2022-11-21T00:36:48.454Z,20.70
2022-11-21T00:39:16.646Z,20.90
2022-11-21T00:41:45.277Z,21.60
2022-11-21T00:44:13.411Z,21.50
2022-11-21T00:46:41.485Z,15.00
2022-11-21T00:49:09.746Z,19.40
2022-11-21T00:51:37.909Z,21.50
2022-11-21T00:54:06.081Z,20.50
2022-11-21T00:56:34.269Z,18.40
2022-11-21T00:59:02.333Z,18.40
2022-11-21T01:01:30.571Z,18.50
2022-11-21T01:03:59.294Z,20.20
2022-11-21T01:06:27.377Z,20.00
2022-11-21T01:08:55.614Z,20.50
2022-11-21T01:11:23.976Z,18.00
2022-11-21T01:13:54.457Z,17.60
2022-11-21T01:16:25.904Z,21.30
2022-11-21T01:18:54.442Z,21.00
2022-11-21T01:21:26.006Z,19.30
2022-11-21T01:23:55.098Z,20.50
2022-11-21T01:26:26.509Z,21.00
2022-11-21T01:28:54.900Z,20.60
2022-11-21T01:31:25.612Z,19.10
2022-11-21T01:33:54.493Z,19.90
2022-11-21T01:36:28.280Z,20.10
2022-11-21T01:38:59.756Z,20.60
2022-11-21T01:41:33.839Z,19.90
2022-11-21T01:44:21.027Z,19.40
2022-11-21T01:46:50.907Z,21.30
2022-11-21T01:49:27.547Z,19.80
2022-11-21T01:51:55.628Z,18.60
2022-11-21T01:54:39.079Z,17.70
2022-11-21T01:57:14.942Z,22.10
2022-11-21T01:59:53.474Z,22.30
2022-11-21T02:02:25.781Z,21.50
2022-11-21T02:04:55.801Z,25.50
2022-11-21T02:07:26.328Z,26.00
2022-11-21T02:09:57.975Z,27.30
2022-11-21T02:12:34.146Z,30.40
2022-11-21T02:15:02.769Z,31.70
2022-11-21T02:17:32.063Z,27.00
2022-11-21T02:20:07.368Z,30.30
2022-11-21T02:22:49.983Z,29.50
2022-11-21T02:25:24.456Z,28.80
2022-11-21T02:27:58.115Z,30.50
2022-11-21T02:30:28.408Z,29.00
2022-11-21T02:32:56.636Z,29.20
2022-11-21T02:35:25.192Z,27.00
2022-11-21T02:38:13.488Z,28.00
2022-11-21T02:40:48.892Z,27.00
2022-11-21T02:43:25.401Z,25.90
2022-11-21T02:45:54.480Z,28.60
2022-11-21T02:48:22.880Z,26.00
2022-11-21T02:50:51.301Z,27.90
2022-11-21T02:53:19.640Z,29.70
2022-11-21T02:55:48.060Z,28.20
2022-11-21T02:58:16.397Z,27.70
2022-11-21T03:00:45.460Z,29.50
2022-11-21T03:03:14.679Z,30.20
2022-11-21T03:05:43.378Z,30.70
2022-11-21T03:08:12.081Z,29.90
2022-11-21T03:10:40.321Z,31.80
2022-11-21T03:13:09.402Z,30.30
2022-11-21T03:15:37.687Z,27.80
2022-11-21T03:18:05.954Z,31.80
2022-11-21T03:20:35.119Z,30.40
2022-11-21T03:23:03.989Z,29.90
2022-11-21T03:25:32.319Z,29.20
2022-11-21T03:28:00.580Z,31.30
2022-11-21T03:30:28.772Z,26.20
2022-11-21T03:32:57.878Z,27.30
2022-11-21T03:35:26.903Z,29.60
2022-11-21T03:37:55.296Z,32.30
2022-11-21T03:40:23.690Z,29.50
2022-11-21T03:42:52.006Z,31.40
2022-11-21T03:45:20.594Z,31.80
2022-11-21T03:47:49.173Z,30.80
2022-11-21T03:50:21.186Z,31.10
2022-11-21T03:52:49.690Z,31.60
2022-11-21T03:55:17.977Z,32.80
2022-11-21T03:57:46.488Z,32.70
2022-11-21T04:00:16.122Z,29.10
2022-11-21T04:02:44.542Z,31.30
2022-11-21T04:05:12.917Z,31.50
2022-11-21T04:07:41.449Z,31.80
2022-11-21T04:10:10.381Z,31.00
2022-11-21T04:12:38.774Z,31.30
2022-11-21T04:15:13.179Z,31.90
2022-11-21T04:17:42.445Z,29.20
2022-11-21T04:20:11.586Z,30.80
2022-11-21T04:22:39.994Z,31.50
2022-11-21T04:25:08.721Z,30.30
2022-11-21T04:27:37.331Z,29.00
2022-11-21T04:30:07.057Z,30.60
2022-11-21T04:32:35.302Z,28.10
2022-11-21T04:35:03.827Z,30.60
2022-11-21T04:37:32.050Z,29.20
2022-11-21T04:40:00.479Z,28.70
2022-11-21T04:42:28.887Z,28.70
2022-11-21T04:44:57.039Z,27.10
2022-11-21T04:47:25.378Z,28.30
2022-11-21T04:49:53.637Z,27.40
2022-11-21T04:52:21.874Z,29.60
2022-11-21T04:54:50.167Z,30.40
2022-11-21T04:57:18.405Z,30.80
2022-11-21T04:59:46.650Z,31.00
2022-11-21T05:02:14.819Z,30.60
2022-11-21T05:04:43.051Z,30.70
2022-11-21T05:07:11.345Z,28.30
2022-11-21T05:09:39.590Z,29.00
2022-11-21T05:12:28.803Z,28.20
2022-11-21T05:14:57.308Z,28.10
2022-11-21T05:17:25.495Z,27.60
2022-11-21T05:19:53.759Z,29.10
2022-11-21T05:22:22.302Z,29.90
2022-11-21T05:24:50.502Z,29.00
2022-11-21T05:27:19.031Z,28.60
2022-11-21T05:29:47.386Z,30.30
2022-11-21T05:32:16.701Z,30.60
2022-11-21T05:34:45.443Z,28.90
2022-11-21T05:37:13.747Z,30.70
2022-11-21T05:39:42.102Z,29.00
2022-11-21T05:42:10.280Z,31.60
2022-11-21T05:44:38.545Z,29.70
2022-11-21T05:47:06.825Z,27.80
2022-11-21T05:49:35.166Z,29.70
2022-11-21T05:52:03.588Z,30.20
2022-11-21T05:54:32.030Z,28.50
2022-11-21T05:57:00.371Z,27.90
2022-11-21T05:59:28.795Z,31.10
2022-11-21T06:02:16.067Z,29.40
2022-11-21T06:04:44.386Z,29.10
2022-11-21T06:07:12.690Z,30.30
2022-11-21T06:09:41.595Z,29.80
2022-11-21T06:12:09.783Z,41.90
2022-11-21T06:14:38.121Z,31.00
2022-11-21T06:17:06.938Z,29.40
2022-11-21T06:19:35.303Z,29.10
2022-11-21T06:22:03.664Z,24.90
2022-11-21T06:24:31.923Z,31.70
2022-11-21T06:27:00.186Z,32.10
2022-11-21T06:29:28.390Z,29.70
2022-11-21T06:31:56.628Z,31.30
2022-11-21T06:34:27.416Z,32.40
2022-11-21T06:36:56.320Z,32.30
2022-11-21T06:39:24.846Z,30.50
2022-11-21T06:41:53.415Z,29.70
2022-11-21T06:44:21.748Z,33.30
2022-11-21T06:46:51.651Z,33.50
2022-11-21T06:49:20.252Z,30.10
2022-11-21T06:51:48.598Z,33.80
2022-11-21T06:54:17.261Z,30.40
2022-11-21T06:56:45.675Z,32.60
2022-11-21T06:59:13.963Z,32.10
2022-11-21T07:01:42.274Z,32.40
2022-11-21T07:04:10.551Z,36.30
2022-11-21T07:06:39.001Z,33.30
2022-11-21T07:11:55.671Z,32.00
2022-11-21T07:14:23.911Z,32.00
2022-11-21T07:16:52.431Z,34.50
2022-11-21T07:19:20.602Z,36.60
2022-11-21T07:21:48.774Z,33.20
2022-11-21T07:24:17.164Z,38.60
2022-11-21T07:26:45.786Z,33.90
2022-11-21T07:29:19.689Z,39.90
2022-11-21T07:31:47.947Z,38.60
2022-11-21T07:34:16.201Z,37.80
2022-11-21T07:36:44.539Z,34.60
2022-11-21T07:39:12.822Z,37.70
2022-11-21T07:41:41.607Z,39.60
2022-11-21T07:44:10.164Z,37.80
2022-11-21T07:46:38.548Z,40.60
2022-11-21T07:49:06.919Z,36.70
2022-11-21T07:51:35.171Z,38.30
2022-11-21T07:54:03.674Z,36.30
2022-11-21T07:56:32.123Z,36.40
2022-11-21T07:59:00.546Z,37.80
2022-11-21T08:01:28.882Z,37.70
2022-11-21T08:03:57.300Z,37.70
2022-11-21T08:06:25.563Z,36.20
2022-11-21T08:08:54.503Z,35.20
2022-11-21T08:11:23.021Z,35.30
2022-11-21T08:13:51.243Z,34.80
2022-11-21T08:16:19.992Z,38.20
2022-11-21T08:18:49.552Z,34.50
2022-11-21T08:21:19.978Z,34.90
2022-11-21T08:23:49.119Z,36.00
2022-11-21T08:26:17.408Z,31.80
2022-11-21T08:28:45.875Z,36.70
2022-11-21T08:31:14.352Z,37.10
2022-11-21T08:33:42.639Z,34.90
2022-11-21T08:36:10.911Z,34.00
2022-11-21T08:38:39.099Z,35.30
2022-11-21T08:41:26.318Z,34.20
2022-11-21T08:43:54.795Z,36.30
2022-11-21T08:46:27.367Z,35.60
2022-11-21T08:48:55.800Z,34.70
2022-11-21T08:51:24.316Z,34.70
2022-11-21T08:53:52.675Z,33.60
2022-11-21T08:56:20.969Z,33.40
2022-11-21T08:58:50.007Z,34.40
2022-11-21T09:01:18.287Z,33.60
2022-11-21T09:03:47.012Z,31.90
2022-11-21T09:06:15.303Z,32.90
2022-11-21T09:08:43.639Z,36.40
2022-11-21T09:11:12.216Z,36.10
2022-11-21T09:13:40.459Z,34.70
2022-11-21T09:16:30.676Z,36.30
2022-11-21T09:18:58.895Z,33.80
2022-11-21T09:21:27.139Z,34.90
2022-11-21T09:23:55.375Z,32.50
2022-11-21T09:26:23.560Z,31.90
2022-11-21T09:28:51.830Z,34.30
2022-11-21T09:31:19.955Z,34.10
2022-11-21T09:33:53.578Z,34.40
2022-11-21T09:36:23.319Z,33.40
2022-11-21T09:38:54.699Z,31.40
2022-11-21T09:41:52.837Z,34.00
2022-11-21T09:44:24.486Z,32.90
2022-11-21T09:47:02.999Z,32.80
2022-11-21T09:49:38.547Z,33.20
2022-11-21T09:52:07.664Z,31.10
2022-11-21T09:54:42.102Z,30.90
2022-11-21T09:57:15.546Z,32.60
2022-11-21T10:02:17.258Z,28.80
2022-11-21T10:04:47.322Z,33.10
2022-11-21T10:07:29.221Z,33.90
2022-11-21T10:10:17.374Z,33.00
2022-11-21T10:12:45.426Z,32.30
2022-11-21T10:15:38.339Z,34.60
2022-11-21T10:18:09.723Z,33.60
2022-11-21T10:20:43.571Z,33.70
2022-11-21T10:23:26.919Z,33.80
2022-11-21T10:26:13.061Z,31.40
2022-11-21T10:29:04.650Z,33.10
2022-11-21T10:31:38.265Z,34.90
2022-11-21T10:34:23.695Z,34.10
2022-11-21T10:36:57.047Z,35.10
2022-11-21T10:39:41.434Z,35.30
2022-11-21T10:42:32.610Z,32.80
2022-11-21T10:45:19.510Z,35.10
2022-11-21T10:47:52.589Z,36.50
2022-11-21T10:50:43.002Z,34.20
2022-11-21T10:53:36.138Z,34.10
2022-11-21T10:56:16.032Z,34.20
2022-11-21T10:58:49.850Z,33.20
2022-11-21T11:01:22.272Z,34.20
2022-11-21T11:04:42.882Z,33.50
2022-11-21T11:07:28.461Z,35.30
2022-11-21T11:10:26.966Z,33.50
2022-11-21T11:13:44.604Z,34.70
2022-11-21T11:16:06.072Z,34.30
2022-11-21T11:18:37.645Z,34.30
2022-11-21T11:21:24.959Z,35.10
2022-11-21T11:23:54.709Z,34.80
2022-11-21T11:26:26.092Z,33.20
2022-11-21T11:29:08.219Z,36.30
2022-11-21T11:31:55.667Z,30.50
2022-11-21T11:34:28.580Z,32.20
2022-11-21T11:37:10.945Z,32.90
2022-11-21T11:39:57.646Z,33.60
2022-11-21T11:43:22.492Z,32.00
2022-11-21T11:49:11.077Z,31.20
2022-11-21T11:51:48.010Z,34.20
2022-11-21T11:54:22.382Z,33.40
2022-11-21T11:56:50.934Z,33.80
2022-11-21T11:59:26.627Z,35.80
2022-11-21T12:02:18.678Z,27.00
2022-11-21T12:05:11.504Z,32.00
2022-11-21T12:11:06.431Z,34.30
2022-11-21T12:13:36.567Z,34.60
2022-11-21T12:16:13.777Z,29.00
2022-11-21T12:18:55.369Z,34.10
2022-11-21T12:21:23.656Z,34.20
2022-11-21T12:23:59.316Z,35.50
2022-11-21T12:26:52.166Z,33.10
2022-11-21T12:29:30.087Z,29.30
2022-11-21T12:32:20.220Z,35.10
2022-11-21T12:35:22.950Z,35.00
2022-11-21T12:38:15.366Z,34.20
2022-11-21T12:40:56.873Z,34.20
2022-11-21T12:43:57.404Z,33.00
2022-11-21T12:46:36.688Z,35.10
2022-11-21T12:49:59.008Z,33.70
2022-11-21T12:53:22.491Z,33.50
2022-11-21T12:56:00.432Z,32.40
2022-11-21T12:58:39.815Z,37.10
2022-11-21T13:01:35.761Z,33.90
2022-11-21T13:04:09.744Z,34.20
2022-11-21T13:06:42.003Z,37.20
2022-11-21T13:09:16.484Z,37.40
2022-11-21T13:11:59.750Z,37.40
2022-11-21T13:14:36.638Z,33.00
2022-11-21T13:17:18.731Z,34.80
2022-11-21T13:19:56.429Z,36.30
2022-11-21T13:22:36.873Z,36.40
2022-11-21T13:25:38.881Z,36.60
2022-11-21T13:28:19.262Z,37.70
2022-11-21T13:30:55.137Z,37.60
2022-11-21T13:33:35.727Z,37.30
2022-11-21T13:36:33.911Z,33.80
2022-11-21T13:39:03.208Z,36.80
2022-11-21T13:41:53.219Z,39.00
2022-11-21T13:44:33.499Z,34.10
2022-11-21T13:47:25.716Z,38.10
2022-11-21T13:50:55.533Z,37.00
2022-11-21T13:53:45.564Z,38.20
2022-11-21T13:56:45.257Z,35.50
2022-11-21T13:59:13.333Z,36.00
2022-11-21T14:02:07.724Z,38.00
2022-11-21T14:05:04.405Z,37.60
2022-11-21T14:07:38.727Z,35.80
2022-11-21T14:10:34.204Z,36.40
2022-11-21T14:13:03.957Z,36.50
2022-11-21T14:16:04.165Z,38.00
2022-11-21T14:18:33.120Z,35.20
2022-11-21T14:21:04.137Z,38.90
2022-11-21T14:23:34.677Z,39.40
2022-11-21T14:26:10.851Z,41.30
2022-11-21T14:28:39.014Z,39.30
2022-11-21T14:31:09.529Z,38.00
2022-11-21T14:33:45.425Z,40.90
2022-11-21T14:36:20.214Z,38.40
2022-11-21T14:39:34.798Z,41.80
2022-11-21T14:41:53.118Z,43.60
2022-11-21T14:44:22.742Z,42.40
2022-11-21T14:47:02.479Z,39.00
2022-11-21T14:49:30.678Z,41.20
2022-11-21T14:51:59.830Z,41.40
2022-11-21T14:54:32.402Z,41.60
2022-11-21T14:57:06.458Z,39.40
2022-11-21T14:59:43.091Z,41.10
2022-11-21T15:02:23.079Z,42.50
2022-11-21T15:04:54.660Z,42.40
2022-11-21T15:07:31.639Z,42.40
2022-11-21T15:13:11.042Z,39.30
2022-11-21T15:15:43.695Z,39.50
2022-11-21T15:18:27.715Z,41.50
2022-11-21T15:21:03.290Z,44.10
2022-11-21T15:23:33.170Z,42.60
2022-11-21T15:26:02.348Z,42.20
2022-11-21T15:28:31.512Z,43.80
2022-11-21T15:31:18.482Z,43.40
2022-11-21T15:34:34.362Z,44.40
2022-11-21T15:37:08.480Z,43.30
2022-11-21T15:39:42.537Z,40.40
2022-11-21T15:42:32.346Z,41.40
2022-11-21T15:45:02.796Z,42.40
2022-11-21T15:47:30.991Z,40.60
2022-11-21T15:49:59.124Z,43.20
2022-11-21T15:52:27.422Z,45.00
2022-11-21T15:54:55.514Z,44.60
2022-11-21T15:57:23.788Z,46.20
2022-11-21T15:59:53.246Z,43.40
2022-11-21T16:02:21.470Z,42.40
2022-11-21T16:04:49.651Z,42.50
2022-11-21T16:07:17.970Z,43.20
2022-11-21T16:09:46.299Z,40.40
2022-11-21T16:12:14.437Z,40.20
2022-11-21T16:14:42.631Z,42.80
2022-11-21T16:17:10.784Z,39.50
2022-11-21T16:19:38.905Z,37.90
2022-11-21T16:22:07.129Z,40.50
2022-11-21T16:24:35.287Z,39.50
2022-11-21T16:27:03.947Z,41.50
2022-11-21T16:29:32.094Z,40.90
2022-11-21T16:32:00.225Z,38.10
2022-11-21T16:34:28.563Z,39.10
2022-11-21T16:36:56.738Z,40.30
2022-11-21T16:39:24.894Z,38.70
2022-11-21T16:41:54.985Z,38.60
2022-11-21T16:44:24.053Z,39.60
2022-11-21T16:46:55.000Z,34.00
2022-11-21T16:49:24.895Z,42.90
2022-11-21T16:51:54.255Z,38.20
2022-11-21T16:54:22.572Z,38.60
2022-11-21T16:56:50.928Z,38.90
2022-11-21T16:59:19.320Z,42.80
2022-11-21T17:01:47.796Z,36.80
2022-11-21T17:04:29.069Z,41.90
2022-11-21T17:06:57.731Z,40.30
2022-11-21T17:09:26.164Z,39.40
2022-11-21T17:11:57.864Z,36.90
2022-11-21T17:14:26.894Z,40.80
2022-11-21T17:16:55.677Z,41.30
2022-11-21T17:19:24.280Z,39.40
2022-11-21T17:21:52.795Z,40.40
2022-11-21T17:24:21.045Z,34.00
2022-11-21T17:26:49.365Z,40.10
2022-11-21T17:29:17.829Z,42.30
2022-11-21T17:31:47.002Z,41.80
2022-11-21T17:34:15.712Z,38.80
2022-11-21T17:36:44.251Z,38.90
2022-11-21T17:39:18.141Z,43.00
2022-11-21T17:41:46.492Z,42.90
2022-11-21T17:44:17.579Z,42.80
2022-11-21T17:46:47.073Z,40.60
2022-11-21T17:49:15.500Z,41.70
2022-11-21T17:51:43.933Z,41.20
2022-11-21T17:54:12.874Z,39.60
2022-11-21T17:56:45.971Z,39.80
2022-11-21T17:59:16.591Z,40.20
2022-11-21T18:01:46.329Z,41.50
2022-11-21T18:04:17.581Z,40.90
2022-11-21T18:06:47.179Z,38.50
2022-11-21T18:09:16.835Z,39.40
2022-11-21T18:11:46.284Z,39.50
2022-11-21T18:14:14.823Z,37.40
2022-11-21T18:16:49.528Z,38.00
2022-11-21T18:19:19.454Z,38.00
2022-11-21T18:21:48.102Z,36.30
2022-11-21T18:24:16.539Z,36.70
2022-11-21T18:26:45.127Z,37.10
2022-11-21T18:29:35.081Z,37.20
2022-11-21T18:32:01.839Z,36.50
2022-11-21T18:34:30.225Z,37.90
2022-11-21T18:36:58.506Z,40.30
2022-11-21T18:39:27.255Z,38.10
2022-11-21T18:41:55.774Z,37.20
2022-11-21T18:44:24.251Z,39.00
2022-11-21T18:46:52.947Z,38.00
2022-11-21T18:49:21.317Z,40.00
2022-11-21T18:51:49.722Z,33.90
2022-11-21T18:54:17.981Z,35.70
2022-11-21T18:56:47.260Z,37.10
2022-11-21T18:59:15.877Z,33.70
2022-11-21T19:01:44.237Z,38.10
2022-11-21T19:04:12.716Z,34.70
2022-11-21T19:06:41.226Z,34.90
2022-11-21T19:09:11.001Z,39.60
2022-11-21T19:11:39.391Z,37.40
2022-11-21T19:14:08.123Z,36.10
2022-11-21T19:16:36.442Z,33.80
2022-11-21T19:21:59.098Z,34.00
2022-11-21T19:24:27.843Z,37.10
2022-11-21T19:26:56.199Z,36.10
2022-11-21T19:29:24.523Z,36.60
2022-11-21T19:31:53.327Z,34.90
2022-11-21T19:34:21.851Z,38.60
2022-11-21T19:36:50.162Z,36.20
2022-11-21T19:39:18.598Z,35.00
2022-11-21T19:41:51.209Z,36.50
2022-11-21T19:44:19.484Z,35.30
2022-11-21T19:46:49.783Z,32.20
2022-11-21T19:49:19.809Z,34.20
2022-11-21T19:51:48.154Z,35.30
2022-11-21T19:54:16.788Z,35.50
2022-11-21T19:56:45.143Z,36.60
2022-11-21T19:59:13.832Z,37.30
2022-11-21T20:01:48.164Z,36.90
2022-11-21T20:04:19.422Z,35.10
2022-11-21T20:06:47.988Z,36.40
2022-11-21T20:09:19.072Z,37.20
2022-11-21T20:11:49.904Z,36.20
2022-11-21T20:14:22.451Z,37.30
2022-11-21T20:16:53.305Z,38.10
2022-11-21T20:19:24.352Z,37.90
2022-11-21T20:21:54.250Z,36.40
2022-11-21T20:24:22.701Z,35.40
2022-11-21T20:26:51.049Z,34.90
2022-11-21T20:29:19.522Z,35.00
2022-11-21T20:32:14.157Z,35.90
2022-11-21T20:35:05.039Z,35.00
2022-11-21T20:37:33.488Z,35.70
2022-11-21T20:40:02.150Z,35.30
2022-11-21T20:42:30.913Z,34.60
2022-11-21T20:47:49.603Z,36.80
2022-11-21T20:50:39.126Z,34.20
2022-11-21T20:53:50.725Z,36.70
2022-11-21T20:56:06.355Z,36.10
2022-11-21T20:58:38.083Z,35.60
2022-11-21T21:01:08.701Z,34.50
2022-11-21T21:03:37.427Z,35.10
2022-11-21T21:06:08.162Z,36.20
2022-11-21T21:08:36.652Z,36.50
2022-11-21T21:11:16.556Z,37.60
2022-11-21T21:13:54.040Z,36.70
2022-11-21T21:16:34.545Z,36.30
2022-11-21T21:19:02.814Z,34.20
2022-11-21T21:21:31.014Z,35.00
2022-11-21T21:24:02.647Z,37.30
2022-11-21T21:26:42.531Z,37.80
2022-11-21T21:29:13.640Z,36.80
2022-11-21T21:31:49.625Z,36.20
2022-11-21T21:34:22.677Z,35.90
2022-11-21T21:36:51.617Z,34.30
2022-11-21T21:39:19.986Z,34.60
2022-11-21T21:41:48.857Z,35.10
2022-11-21T21:44:17.749Z,34.30
2022-11-21T21:46:46.497Z,32.00
2022-11-21T21:49:15.014Z,35.20
2022-11-21T21:51:43.417Z,33.30
2022-11-21T21:54:20.135Z,35.60
2022-11-21T21:56:49.876Z,35.30
2022-11-21T21:59:20.017Z,34.90
2022-11-21T22:01:49.300Z,35.70
2022-11-21T22:04:17.873Z,35.60
2022-11-21T22:06:46.440Z,36.50
2022-11-21T22:09:15.122Z,35.50
2022-11-21T22:11:43.799Z,36.40
2022-11-21T22:14:15.084Z,36.70
2022-11-21T22:16:44.271Z,35.80
2022-11-21T22:19:12.914Z,39.40
2022-11-21T22:21:41.483Z,34.20
2022-11-21T22:24:25.868Z,34.20
2022-11-21T22:26:54.992Z,36.60
2022-11-21T22:29:23.557Z,36.30
2022-11-21T22:31:52.121Z,35.70
2022-11-21T22:34:20.731Z,36.40
2022-11-21T22:36:49.274Z,35.20
2022-11-21T22:39:18.235Z,35.30
2022-11-21T22:41:46.939Z,35.10
2022-11-21T22:44:15.387Z,35.40
2022-11-21T22:46:43.855Z,34.60
2022-11-21T22:49:12.541Z,34.60
2022-11-21T22:51:40.847Z,33.50
2022-11-21T22:54:09.145Z,34.60
2022-11-21T22:56:37.404Z,32.30
2022-11-21T22:59:05.832Z,34.80
2022-11-21T23:01:34.987Z,38.00
2022-11-21T23:04:03.522Z,36.70
2022-11-21T23:06:31.788Z,35.70
2022-11-21T23:08:59.925Z,36.70
2022-11-21T23:11:36.255Z,34.70
2022-11-21T23:14:08.061Z,37.40
2022-11-21T23:16:36.374Z,38.00
2022-11-21T23:19:04.731Z,37.00
2022-11-21T23:21:33.076Z,37.60
2022-11-21T23:24:01.217Z,35.50
2022-11-21T23:26:29.765Z,34.30
2022-11-21T23:28:58.963Z,37.30
2022-11-21T23:31:29.764Z,36.30
2022-11-21T23:33:58.198Z,36.20
2022-11-21T23:36:26.329Z,37.00
2022-11-21T23:38:54.503Z,37.00
2022-11-21T23:41:23.154Z,36.50
2022-11-21T23:43:51.500Z,38.20
2022-11-21T23:46:20.820Z,35.90
2022-11-21T23:48:49.149Z,37.50
2022-11-21T23:51:17.587Z,37.30
2022-11-21T23:53:45.956Z,36.60
2022-11-21T23:56:14.328Z,36.30
2022-11-21T23:58:42.712Z,36.40
